• Join FlightAware (Why Join?)
  • Login
  • US Flag 
02:34AM EDT


 

Airport Tracker/Info


-or-


 

Live Flight TrackerFlight Track Log ✈ PDT4166 ✈ 16-Jun-2013 ✈ KPHL - KSYR

Flight Track Log - Related Links

Times and Time Zones

All times are in EDT time to prevent confusion due to time zone crossing. See the PDT4166 flight status page for this flight to view local times or setup timezone preferences in your user account.

Time Position Orientation Groundspeed Altitude Reporting Facility
EDT Latitude Longitude Course Direction KTS MPH feet Rate Location/Type
06:10PM 39.9000 -75.2333 311° West 118 136 400  Level Philadelphia TRACON
06:11PM 39.9167 -75.2833 294° West 124 143 2,200 1,620 Climbing Philadelphia TRACON
06:12PM 39.9333 -75.3167 303° West 132 152 3,900 1,680 Climbing Philadelphia TRACON
06:13PM 40.0961 -75.4314 339° North  Level FlightAware Approximate
06:13PM 39.9500 -75.3667 294° West 118 136 5,600  Level Philadelphia TRACON
06:13PM 39.9461 -75.3875 256° West 118 136 6,200 1,440 Climbing New York Center
06:14PM 40.1449 -75.4949 323° Northwest  Level FlightAware Approximate
06:14PM 39.9594 -75.4208 298° West 118 136 7,900  Level New York Center
06:15PM 40.1976 -75.5463 311° West  Level FlightAware Approximate
06:15PM 39.9761 -75.4681 295° West 149 171 8,800  Level New York Center
06:16PM 39.9950 -75.5181 296° West 177 204 9,000 60 Climbing New York Center
06:17PM 40.0483 -75.5406 342° North 218 251 9,000 660 Level New York Center
06:18PM 40.1003 -75.5442 357° North 183 211 10,400 1,140 Climbing New York Center
06:19PM 40.1500 -75.5558 350° North 172 198 11,400 780 Climbing New York Center
06:20PM 40.1914 -75.5586 357° North 178 205 12,000 300 Climbing New York Center
06:21PM 40.2364 -75.5781 342° North 172 198 12,000  Level New York Center
06:22PM 40.2681 -75.6211 314° West 152 175 12,000  Level New York Center
06:23PM 40.3167 -75.6544 332° Northwest 178 205 12,000  Level New York Center
06:24PM 40.3631 -75.6958 326° Northwest 197 227 12,000  Level New York Center
06:25PM 40.4097 -75.7236 336° Northwest 204 235 12,000  Level New York Center
06:26PM 40.4667 -75.7550 337° Northwest 204 235 12,000 660 Level New York Center
06:27PM 40.5194 -75.7889 334° Northwest 210 242 13,400 1,020 Climbing New York Center
06:28PM 40.5642 -75.8142 337° Northwest 184 212 14,000 240 Climbing New York Center
06:29PM 40.6150 -75.8453 335° Northwest 184 212 14,000  Level New York Center
06:30PM 40.6639 -75.8733 336° Northwest 201 231 14,000  Level New York Center
06:31PM 40.7167 -75.9047 336° Northwest 201 231 14,000  Level New York Center
06:32PM 40.7686 -75.9553 324° Northwest 206 237 14,000  Level New York Center
06:33PM 40.8217 -75.9811 340° North 211 243 14,000  Level New York Center
06:34PM 40.8825 -76.0189 335° Northwest 216 249 14,000  Level New York Center
06:35PM 40.9394 -76.0506 337° Northwest 216 249 14,000  Level New York Center
06:36PM 40.9986 -76.0772 341° North 216 249 14,000  Level New York Center
06:37PM 41.0494 -76.1086 335° Northwest 216 249 14,000  Level New York Center
06:38PM 41.1125 -76.1411 339° North 221 254 14,000  Level New York Center
06:39PM 41.1714 -76.1733 338° Northwest 226 260 14,000  Level New York Center
06:40PM 41.2281 -76.2083 335° Northwest 231 266 14,000  Level New York Center
06:41PM 41.2867 -76.2047 North 225 259 14,000  Level New York Center
06:42PM 41.3536 -76.1992 North 233 268 14,000  Level New York Center
06:43PM 41.4253 -76.1772 13° North 239 275 14,000  Level New York Center
06:44PM 41.4906 -76.1631 North 239 275 14,000  Level New York Center
06:45PM 41.5536 -76.1517 North 239 275 14,000  Level New York Center
06:46PM 41.6100 -76.1506 North 228 262 14,000  Level New York Center
06:47PM 41.6725 -76.1472 North 228 262 14,000  Level New York Center
06:48PM 41.7453 -76.1531 357° North 228 262 14,000  Level New York Center
06:49PM 41.8075 -76.1581 357° North 233 268 14,000 -120 Level New York Center
06:50PM 41.8717 -76.1661 355° North 233 268 13,800 -420 Descending New York Center
06:51PM 41.9339 -76.1683 358° North 238 274 13,200 -660 Descending New York Center
06:52PM 42.0025 -76.1711 358° North 238 274 12,600 -600 Descending New York Center
06:53PM 42.0753 -76.1744 358° North 248 285 12,100 -300 Descending New York Center
06:54PM 42.1419 -76.1742 360° North 248 285 12,000 -60 Descending New York Center
06:55PM 42.2083 -76.1769 358° North 248 285 12,000  Level New York Center
06:56PM 42.2708 -76.1792 358° North 231 266 12,000 -360 Level New York Center
06:57PM 42.3394 -76.1764 North 231 266 11,300 -540 Descending New York Center
06:58PM 42.4075 -76.1831 356° North 246 283 11,000 -180 Descending Boston Center
06:59PM 42.4719 -76.1869 357° North 236 272 11,000  Level Boston Center
07:00PM 42.5344 -76.1881 359° North 225 259 11,000  Level Boston Center
07:01PM 42.5931 -76.1858 North 214 246 11,000 -420 Level Boston Center
07:02PM 42.6603 -76.1700 10° North 249 287 10,200 -1,080 Descending Boston Center
07:03PM 42.7294 -76.1544 North 285 328 8,900 -1,380 Descending Boston Center
07:04PM 42.8031 -76.1333 12° North 259 298 7,500 -1,320 Descending Boston Center
07:05PM 42.8619 -76.0578 43° Northeast 246 283 6,300 -1,080 Descending Boston Center
07:07PM 42.9056 -75.9950 47° Northeast 234 269 5,300 -1,020 Descending Boston Center
07:08PM 42.9467 -75.9433 43° Northeast 207 238 4,200 -1,140 Descending Boston Center